Glenwood, Florida
Current Conditions -  °F | °C
As of 9:55 PM on Friday 21 Nov 2014 (Local Time) from KDED Reporting Station
Scattered Clouds Scattered Clouds  
Wind Chill: 57°   Ceiling: Unl
Heat Index: 57°   Visibility: 10mi
Dew Point: 54°   Wind: 7mph
Humidity: 88%   Direction: 350°N
Pressure: 30.3"   Gusts: NA
Location:  29.09°N, 81.35°W
Report Text: KDED 220255Z AUTO 35006KT 10SM SCT050 14/12 A3030 RMK AO1
Loading
Personal Weather Stations






























Interactive Weather Map New forecast layout! Learn more

10-Day Weather Forecast

Advertisements
Track Severe Weather on mobile